Time;durP1;ratioP1;P1;durP2;ratioP2;P2;SDS_P1;SDS_P2;PMS_P1;PMS_P2;Temp;Humidity;BMP_temperature;BMP_pressure;BME280_temperature;BME280_humidity;BME280_pressure;Samples;Min_cycle;Max_cycle;Signal;HPM_P1;HPM_P2
2022/11/12 00:00:38;;;;;;;30.40;15.43;;;6.80;99.90;;;;;;5041084;28;20504;-70
2022/11/12 00:03:04;;;;;;;27.00;13.93;;;6.80;99.90;;;;;;5057642;28;20166;-70
2022/11/12 00:05:31;;;;;;;26.50;14.50;;;6.80;99.90;;;;;;5057664;28;20401;-70
2022/11/12 00:07:56;;;;;;;26.63;14.30;;;6.80;99.90;;;;;;5057474;28;20040;-68
2022/11/12 00:10:22;;;;;;;29.67;13.80;;;6.90;99.90;;;;;;5057108;28;20047;-68
2022/11/12 00:12:48;;;;;;;29.67;14.32;;;6.70;99.90;;;;;;5057337;28;20044;-68
2022/11/12 00:15:14;;;;;;;30.52;14.00;;;7.00;99.90;;;;;;5057231;28;20516;-68
2022/11/12 00:17:40;;;;;;;29.70;14.63;;;6.70;99.90;;;;;;5040268;28;20602;-70
2022/11/12 00:20:07;;;;;;;26.10;14.07;;;6.70;99.90;;;;;;5057262;28;20128;-68
2022/11/12 00:22:33;;;;;;;28.30;14.25;;;6.70;99.90;;;;;;5056994;28;20048;-68
2022/11/12 00:24:58;;;;;;;32.47;15.95;;;7.10;99.90;;;;;;5057019;28;20044;-68
2022/11/12 00:27:24;;;;;;;28.60;15.10;;;7.00;99.90;;;;;;5024170;28;20050;-68
2022/11/12 00:29:50;;;;;;;28.92;15.60;;;6.90;99.90;;;;;;5056964;28;20044;-68
2022/11/12 00:32:16;;;;;;;31.02;16.70;;;7.30;99.90;;;;;;5057293;28;20132;-68
2022/11/12 00:34:41;;;;;;;30.27;15.73;;;7.40;99.90;;;;;;5056818;28;20114;-68
2022/11/12 00:37:07;;;;;;;28.98;15.75;;;6.90;99.90;;;;;;5040580;28;20051;-68
2022/11/12 00:39:33;;;;;;;29.42;16.05;;;6.90;99.90;;;;;;5040104;28;20048;-72
2022/11/12 00:41:59;;;;;;;33.22;15.15;;;6.90;99.90;;;;;;5057111;28;20056;-68
2022/11/12 00:44:25;;;;;;;28.98;16.30;;;6.90;99.90;;;;;;5056956;28;20413;-71
2022/11/12 00:46:50;;;;;;;32.63;15.57;;;6.90;99.90;;;;;;5007601;28;20048;-69
2022/11/12 00:49:16;;;;;;;31.63;15.70;;;6.90;99.90;;;;;;5040272;28;20052;-71
2022/11/12 00:51:42;;;;;;;27.98;14.43;;;6.80;99.90;;;;;;5056599;28;20535;-70
2022/11/12 00:54:08;;;;;;;29.08;14.52;;;6.80;99.90;;;;;;5056730;28;20044;-69
2022/11/12 00:56:34;;;;;;;26.08;14.30;;;7.10;99.90;;;;;;5056300;28;20465;-69
2022/11/12 00:58:59;;;;;;;29.20;14.95;;;6.70;99.90;;;;;;5056669;28;20098;-69
2022/11/12 01:01:25;;;;;;;24.77;14.23;;;6.60;99.90;;;;;;5056521;28;20131;-69
2022/11/12 01:03:51;;;;;;;32.97;14.88;;;6.60;99.90;;;;;;5056423;28;20465;-69
2022/11/12 01:06:22;;;;;;;28.95;15.43;;;6.60;99.90;;;;;;5042377;28;20037;-69
2022/11/12 01:08:49;;;;;;;32.95;16.15;;;6.70;99.90;;;;;;5019400;28;20493;-68
2022/11/12 01:11:22;;;;;;;30.13;15.15;;;6.70;99.90;;;;;;5019784;28;20111;-68
2022/11/12 01:13:54;;;;;;;29.02;14.57;;;6.70;99.90;;;;;;5036190;28;20048;-69
2022/11/12 01:16:22;;;;;;;35.53;15.88;;;6.70;99.90;;;;;;5035688;28;20501;-69
2022/11/12 01:18:53;;;;;;;34.33;15.88;;;6.70;99.90;;;;;;5019646;28;20049;-70
2022/11/12 01:21:20;;;;;;;29.05;15.00;;;6.60;99.90;;;;;;5019694;28;20124;-69
2022/11/12 01:23:46;;;;;;;31.50;14.70;;;6.60;99.90;;;;;;5035540;28;20111;-69
2022/11/12 01:26:14;;;;;;;30.23;15.52;;;6.50;99.90;;;;;;5019728;28;20061;-69
2022/11/12 01:28:41;;;;;;;31.33;15.95;;;6.80;99.90;;;;;;5035835;28;20140;-69
2022/11/12 01:31:19;;;;;;;29.88;15.30;;;6.80;99.90;;;;;;5019483;28;20045;-69
2022/11/12 01:33:47;;;;;;;29.58;14.93;;;6.50;99.90;;;;;;5035529;28;20075;-69
2022/11/12 01:36:15;;;;;;;31.60;14.77;;;6.40;99.90;;;;;;5002952;28;20052;-69
2022/11/12 01:38:42;;;;;;;32.72;16.45;;;6.40;99.90;;;;;;5035738;28;20095;-69
2022/11/12 01:41:11;;;;;;;32.95;16.10;;;6.40;99.90;;;;;;5035913;28;20059;-69
2022/11/12 01:43:37;;;;;;;31.02;15.90;;;6.50;99.90;;;;;;5019202;28;20559;-69
2022/11/12 01:46:17;;;;;;;31.90;16.95;;;6.40;99.90;;;;;;5003003;28;20049;-70
2022/11/12 01:48:52;;;;;;;40.20;17.45;;;6.40;99.90;;;;;;5018902;28;20048;-70
2022/11/12 01:51:20;;;;;;;33.72;17.23;;;6.50;99.90;;;;;;5019248;28;20428;-69
2022/11/12 01:53:50;;;;;;;35.58;16.90;;;6.50;99.90;;;;;;5035270;28;20493;-70
2022/11/12 01:56:16;;;;;;;31.88;16.70;;;6.50;99.90;;;;;;5019086;28;20053;-69
2022/11/12 01:58:44;;;;;;;38.50;16.98;;;6.40;99.90;;;;;;5002575;28;20049;-70
2022/11/12 02:01:10;;;;;;;32.95;17.13;;;6.30;99.90;;;;;;5018888;28;20429;-69
2022/11/12 02:03:36;;;;;;;34.80;16.98;;;6.40;99.90;;;;;;5035489;28;20037;-69
2022/11/12 02:06:08;;;;;;;34.03;17.55;;;6.40;99.90;;;;;;5018877;28;20049;-69
2022/11/12 02:08:34;;;;;;;39.78;17.70;;;6.40;99.90;;;;;;5035135;28;20386;-70
2022/11/12 02:11:17;;;;;;;32.65;14.60;;;6.40;99.90;;;;;;5035053;28;20061;-70
2022/11/12 02:13:56;;;;;;;31.42;15.80;;;6.20;99.90;;;;;;5034906;28;20041;-69
2022/11/12 02:16:34;;;;;;;35.33;17.08;;;6.10;99.90;;;;;;5035501;28;20053;-70
2022/11/12 02:19:01;;;;;;;40.50;17.55;;;6.10;99.90;;;;;;5035030;28;20057;-69
2022/11/12 02:21:27;;;;;;;35.53;18.30;;;6.20;99.90;;;;;;5035247;28;20048;-69
2022/11/12 02:24:23;;;;;;;36.70;17.95;;;6.50;99.90;;;;;;4990444;28;20063;-70
2022/11/12 02:26:54;;;;;;;34.90;18.08;;;6.20;99.90;;;;;;5046130;28;20064;-69
2022/11/12 02:29:20;;;;;;;37.20;18.17;;;6.90;99.90;;;;;;5038326;28;20043;-69
2022/11/12 02:31:46;;;;;;;39.35;18.23;;;6.20;99.90;;;;;;5038252;28;20124;-70
2022/11/12 02:34:13;;;;;;;38.67;18.17;;;6.10;99.90;;;;;;5021924;28;20098;-69
2022/11/12 02:36:39;;;;;;;34.20;16.83;;;6.10;99.90;;;;;;5038233;28;20060;-70
2022/11/12 02:39:05;;;;;;;32.53;16.65;;;6.30;99.90;;;;;;5054837;28;20041;-70
2022/11/12 02:41:31;;;;;;;35.65;18.90;;;6.00;99.90;;;;;;5055002;28;20101;-70
2022/11/12 02:43:56;;;;;;;37.92;18.85;;;5.90;99.90;;;;;;5054775;28;20436;-70
2022/11/12 02:46:22;;;;;;;45.17;20.60;;;6.00;99.90;;;;;;5038355;28;20053;-70
2022/11/12 02:48:48;;;;;;;40.55;18.70;;;6.10;99.90;;;;;;5054517;28;20041;-70
2022/11/12 02:51:13;;;;;;;41.65;19.52;;;6.10;99.90;;;;;;5054530;28;20098;-70
2022/11/12 02:53:39;;;;;;;37.92;18.38;;;6.40;99.90;;;;;;5054863;28;20080;-70
2022/11/12 02:56:05;;;;;;;45.35;19.95;;;6.10;99.90;;;;;;5054407;28;20173;-70
2022/11/12 02:58:31;;;;;;;48.55;21.98;;;6.10;99.90;;;;;;5054511;28;20045;-70
2022/11/12 03:00:57;;;;;;;40.67;20.33;;;6.10;99.90;;;;;;5054466;28;20044;-70
2022/11/12 03:03:23;;;;;;;40.67;20.30;;;6.10;99.90;;;;;;5038082;28;20077;-70
2022/11/12 03:06:00;;;;;;;46.63;21.35;;;6.10;99.90;;;;;;5037709;28;20037;-69
2022/11/12 03:08:26;;;;;;;48.28;21.55;;;6.20;99.90;;;;;;5054508;28;20054;-70
2022/11/12 03:10:52;;;;;;;51.50;22.00;;;6.20;99.90;;;;;;5054770;28;20139;-70
2022/11/12 03:13:19;;;;;;;40.03;21.17;;;6.30;99.90;;;;;;5037978;28;20493;-70
2022/11/12 03:15:44;;;;;;;49.83;23.27;;;6.20;99.90;;;;;;5037776;28;20051;-70
2022/11/12 03:18:10;;;;;;;49.58;23.33;;;7.30;99.90;;;;;;5054192;28;20044;-70
2022/11/12 03:20:36;;;;;;;48.67;19.88;;;6.40;99.90;;;;;;5037926;28;20389;-70
2022/11/12 03:23:05;;;;;;;41.20;18.83;;;6.10;99.90;;;;;;5037667;28;20048;-69
2022/11/12 03:25:30;;;;;;;38.90;20.42;;;6.00;99.90;;;;;;5054113;28;20095;-69
2022/11/12 03:28:04;;;;;;;39.90;21.17;;;5.90;99.90;;;;;;5037467;28;20099;-69
2022/11/12 03:30:34;;;;;;;48.42;22.73;;;6.00;99.90;;;;;;5054323;28;20078;-69
2022/11/12 03:33:00;;;;;;;48.67;20.73;;;7.00;99.90;;;;;;5054017;28;20049;-69
2022/11/12 03:35:26;;;;;;;40.63;20.48;;;5.90;99.90;;;;;;5037619;28;20040;-70
2022/11/12 03:37:52;;;;;;;41.72;20.75;;;6.00;99.90;;;;;;5054370;28;20049;-69
2022/11/12 03:40:18;;;;;;;47.03;21.38;;;5.80;99.90;;;;;;5041274;28;20088;-69
2022/11/12 03:42:48;;;;;;;52.38;22.95;;;5.90;99.90;;;;;;5058070;28;20041;-70
2022/11/12 03:45:15;;;;;;;135.40;20.98;;;5.90;99.90;;;;;;5057669;28;20056;-70
2022/11/12 03:47:46;;;;;;;34.95;17.50;;;6.70;99.90;;;;;;5041081;28;20045;-70
2022/11/12 03:50:13;;;;;;;33.60;19.05;;;5.50;99.90;;;;;;5041101;28;20393;-70
2022/11/12 03:52:43;;;;;;;42.10;21.40;;;5.60;99.90;;;;;;5041267;28;20045;-69
2022/11/12 03:55:09;;;;;;;524.35;37.90;;;5.60;99.90;;;;;;5040596;28;20038;-70
2022/11/12 03:57:34;;;;;;;49.13;17.25;;;5.50;99.90;;;;;;5057735;28;20052;-69
2022/11/12 04:00:00;;;;;;;39.53;17.75;;;5.10;99.90;;;;;;5057395;28;20052;-69
2022/11/12 04:02:28;;;;;;;39.05;20.42;;;5.10;99.90;;;;;;5057824;28;20109;-70
2022/11/12 04:10:22;;;;;;;48.90;21.88;;;5.50;99.90;;;;;;5043353;28;20558;-69
2022/11/12 04:15:33;;;;;;;95.57;19.80;;;5.50;99.90;;;;;;5043235;28;20059;-70
2022/11/12 04:23:27;;;;;;;182.75;24.42;;;5.20;99.90;;;;;;5059767;28;20059;-70
2022/11/12 04:28:36;;;;;;;44.28;21.20;;;5.00;99.90;;;;;;5057192;28;20067;-70
2022/11/12 04:31:02;;;;;;;60.05;24.33;;;5.20;99.90;;;;;;5056911;28;20473;-70
2022/11/12 04:33:28;;;;;;;61.60;24.52;;;5.40;99.90;;;;;;5057003;28;20188;-70
2022/11/12 04:35:53;;;;;;;58.08;25.13;;;5.60;99.90;;;;;;5056685;28;20051;-70
2022/11/12 04:38:19;;;;;;;69.47;27.27;;;6.30;99.90;;;;;;5040225;28;20139;-69
2022/11/12 04:46:13;;;;;;;57.58;23.85;;;6.00;99.90;;;;;;5056758;28;20049;-69
2022/11/12 04:48:39;;;;;;;54.67;24.30;;;5.60;99.90;;;;;;5040288;28;20057;-70
2022/11/12 04:52:03;;;;;;;55.88;23.80;;;5.70;99.90;;;;;;5038966;28;20048;-70
2022/11/12 04:53:53;;;;;;;61.15;23.70;;;6.20;99.90;;;;;;5056365;28;20056;-70
2022/11/12 04:56:19;;;;;;;52.17;22.48;;;5.50;99.90;;;;;;5007119;28;20135;-70
2022/11/12 04:58:45;;;;;;;53.50;21.95;;;5.50;99.90;;;;;;5040074;28;20041;-70
2022/11/12 05:01:11;;;;;;;48.65;21.00;;;5.80;99.90;;;;;;5023359;28;20094;-70
2022/11/12 05:03:36;;;;;;;49.05;22.38;;;5.40;99.90;;;;;;5039894;28;20457;-70
2022/11/12 05:06:49;;;;;;;46.58;20.55;;;5.40;99.90;;;;;;5023312;28;20045;-69
2022/11/12 05:08:49;;;;;;;44.80;20.23;;;5.40;99.90;;;;;;5056048;28;20064;-69
2022/11/12 05:11:15;;;;;;;41.92;20.25;;;5.40;99.90;;;;;;5039767;28;20060;-69
2022/11/12 05:13:40;;;;;;;57.47;19.60;;;5.40;99.90;;;;;;5039882;28;20493;-69
2022/11/12 05:16:06;;;;;;;43.03;19.00;;;5.40;99.90;;;;;;5055805;28;20062;-69
2022/11/12 05:18:32;;;;;;;42.25;19.45;;;5.60;99.90;;;;;;5023265;28;20055;-69
2022/11/12 05:22:03;;;;;;;45.25;20.30;;;5.30;99.90;;;;;;5039620;28;20049;-69
2022/11/12 05:23:43;;;;;;;45.17;20.00;;;5.50;99.90;;;;;;5055790;28;20041;-70
2022/11/12 05:26:09;;;;;;;40.38;18.90;;;5.60;99.90;;;;;;5055546;28;20116;-69
2022/11/12 05:28:34;;;;;;;46.33;17.95;;;5.40;99.90;;;;;;5039415;28;20040;-70
2022/11/12 05:31:00;;;;;;;37.42;17.38;;;5.30;99.90;;;;;;5039442;28;20051;-69
2022/11/12 05:33:26;;;;;;;37.35;17.55;;;5.60;99.90;;;;;;5022711;28;20421;-69
2022/11/12 05:35:54;;;;;;;41.05;17.80;;;5.20;99.90;;;;;;5038947;28;20451;-70
2022/11/12 05:38:20;;;;;;;38.05;17.17;;;5.30;99.90;;;;;;5038846;28;20048;-70
2022/11/12 05:40:45;;;;;;;44.28;17.52;;;5.30;99.90;;;;;;5039214;28;20061;-70
2022/11/12 05:43:11;;;;;;;33.70;15.75;;;5.20;99.90;;;;;;5055599;28;20044;-69
2022/11/12 05:45:36;;;;;;;35.65;15.77;;;5.10;99.90;;;;;;5039188;28;20044;-70
2022/11/12 05:48:02;;;;;;;38.65;17.60;;;5.10;99.90;;;;;;5055789;28;20090;-69
2022/11/12 05:50:28;;;;;;;34.05;16.75;;;5.20;99.90;;;;;;5038773;28;20472;-69
2022/11/12 05:52:53;;;;;;;44.50;18.05;;;5.60;99.90;;;;;;5039217;28;20041;-70
2022/11/12 05:55:19;;;;;;;46.30;18.70;;;5.40;99.90;;;;;;5038757;28;20083;-70
2022/11/12 05:57:45;;;;;;;43.75;18.08;;;5.40;99.90;;;;;;5039008;28;20504;-70
2022/11/12 06:00:11;;;;;;;39.60;17.27;;;5.30;99.90;;;;;;5055221;28;20049;-69
2022/11/12 06:02:36;;;;;;;42.95;16.65;;;5.30;99.90;;;;;;5022359;28;20131;-69
2022/11/12 06:05:02;;;;;;;40.13;16.80;;;5.40;99.90;;;;;;5055276;28;20560;-69
2022/11/12 06:07:28;;;;;;;38.60;16.80;;;5.40;99.90;;;;;;5055318;28;20071;-70
2022/11/12 06:09:53;;;;;;;41.92;16.73;;;5.50;99.90;;;;;;5038924;28;20477;-70
2022/11/12 06:12:19;;;;;;;37.80;17.08;;;5.60;99.90;;;;;;5055179;28;20110;-70
2022/11/12 06:14:45;;;;;;;33.85;14.98;;;5.50;99.90;;;;;;5038469;28;20213;-70
2022/11/12 06:17:10;;;;;;;34.13;15.65;;;5.30;99.90;;;;;;5022216;28;20048;-70
2022/11/12 06:19:36;;;;;;;38.40;15.52;;;5.20;99.90;;;;;;5038311;28;20566;-70
2022/11/12 06:22:02;;;;;;;34.65;14.98;;;5.20;99.90;;;;;;5054992;28;20044;-69
2022/11/12 06:24:29;;;;;;;37.65;15.57;;;5.30;99.90;;;;;;5038156;28;20139;-70
2022/11/12 06:26:55;;;;;;;55.58;17.05;;;5.30;99.90;;;;;;5005996;28;20041;-69
2022/11/12 06:29:20;;;;;;;45.80;15.23;;;5.30;99.90;;;;;;5038332;28;20063;-70
2022/11/12 06:31:46;;;;;;;37.33;15.07;;;5.10;99.90;;;;;;5054945;28;20610;-70
2022/11/12 06:34:11;;;;;;;33.10;13.93;;;5.00;99.90;;;;;;5036426;28;20044;-70
2022/11/12 06:36:37;;;;;;;32.42;14.05;;;5.10;99.90;;;;;;5051934;28;20139;-70
2022/11/12 06:39:03;;;;;;;45.72;14.77;;;5.10;99.90;;;;;;5052567;28;20461;-70
2022/11/12 06:41:29;;;;;;;41.88;14.73;;;5.00;99.90;;;;;;5035351;28;20040;-69
2022/11/12 06:43:54;;;;;;;28.10;13.07;;;5.40;99.90;;;;;;5052189;28;20127;-69
2022/11/12 06:46:20;;;;;;;40.33;15.32;;;5.00;99.90;;;;;;5035030;28;20467;-70
2022/11/12 06:48:46;;;;;;;53.00;19.75;;;5.10;99.90;;;;;;4703641;28;10000373;-70
2022/11/12 06:51:18;;;;;;;37.17;15.32;;;5.30;99.90;;;;;;5052384;28;20098;-70
2022/11/12 06:53:44;;;;;;;41.33;16.33;;;5.20;99.90;;;;;;5052500;28;20143;-70
2022/11/12 06:56:10;;;;;;;34.97;15.32;;;5.80;99.90;;;;;;5003188;28;20382;-70
2022/11/12 06:58:36;;;;;;;36.42;15.13;;;5.30;99.90;;;;;;5035101;28;20110;-70
2022/11/12 07:01:06;;;;;;;34.13;15.60;;;5.20;99.90;;;;;;5052292;28;20048;-70
2022/11/12 07:03:32;;;;;;;31.92;14.25;;;5.20;99.90;;;;;;5052361;28;20132;-70
2022/11/12 07:06:04;;;;;;;36.50;15.70;;;5.30;99.90;;;;;;5052582;28;20127;-70
2022/11/12 07:08:29;;;;;;;37.80;16.10;;;5.20;99.90;;;;;;5035554;28;20036;-70
2022/11/12 07:10:56;;;;;;;42.38;16.13;;;5.30;99.90;;;;;;5051951;28;20190;-70
2022/11/12 07:13:22;;;;;;;38.80;16.77;;;5.20;99.90;;;;;;5019547;28;20059;-69
2022/11/12 07:15:47;;;;;;;34.70;15.65;;;5.90;99.90;;;;;;5039362;28;20076;-69
2022/11/12 07:18:13;;;;;;;36.33;16.13;;;5.50;99.90;;;;;;5039691;28;20049;-69
2022/11/12 07:20:39;;;;;;;39.00;16.75;;;5.30;99.90;;;;;;5055905;28;20560;-70
2022/11/12 07:23:04;;;;;;;39.70;15.40;;;5.30;99.90;;;;;;5055443;28;20048;-70
2022/11/12 07:25:30;;;;;;;36.80;16.00;;;5.30;99.90;;;;;;5055381;28;20080;-70
2022/11/12 07:27:56;;;;;;;38.38;16.23;;;5.20;99.90;;;;;;5056148;28;20064;-70
2022/11/12 07:30:22;;;;;;;31.75;15.93;;;5.20;99.90;;;;;;5039663;28;20052;-69
2022/11/12 07:32:47;;;;;;;39.83;15.93;;;5.50;99.90;;;;;;5022718;28;20534;-70
2022/11/12 07:35:13;;;;;;;35.03;15.95;;;5.50;99.90;;;;;;5055549;28;20046;-69
2022/11/12 07:37:39;;;;;;;37.08;16.35;;;5.60;99.90;;;;;;5039178;28;20044;-69
2022/11/12 07:40:05;;;;;;;38.00;16.98;;;5.50;99.90;;;;;;5022895;28;20400;-70
2022/11/12 07:42:34;;;;;;;34.67;16.25;;;5.50;99.90;;;;;;5055502;28;20044;-70
2022/11/12 07:45:00;;;;;;;37.38;17.70;;;6.20;99.90;;;;;;5022753;28;20472;-69
2022/11/12 07:47:26;;;;;;;38.97;16.90;;;5.60;99.90;;;;;;5060772;28;20142;-69
2022/11/12 07:49:52;;;;;;;35.85;17.13;;;5.90;99.90;;;;;;5075878;28;20051;-69
2022/11/12 07:52:18;;;;;;;42.30;18.23;;;5.80;99.90;;;;;;5058894;28;20044;-69
2022/11/12 07:54:43;;;;;;;43.03;18.13;;;5.90;99.90;;;;;;5058496;28;20135;-70
2022/11/12 07:57:09;;;;;;;40.80;17.27;;;5.90;99.90;;;;;;5075798;28;20044;-69
2022/11/12 07:59:35;;;;;;;43.17;17.67;;;6.00;99.90;;;;;;5058504;28;20059;-69
2022/11/12 08:02:00;;;;;;;38.72;17.67;;;6.00;99.90;;;;;;5075496;28;20059;-69
2022/11/12 08:04:26;;;;;;;38.50;17.02;;;6.10;99.90;;;;;;5075669;28;20449;-69
2022/11/12 08:06:52;;;;;;;39.78;18.50;;;6.20;99.90;;;;;;5075325;28;20052;-69
2022/11/12 08:09:17;;;;;;;38.75;17.95;;;6.40;99.90;;;;;;5058551;28;20391;-69
2022/11/12 08:11:43;;;;;;;38.95;17.92;;;6.80;99.90;;;;;;5074702;28;20093;-70
2022/11/12 08:14:09;;;;;;;36.33;17.15;;;6.50;99.90;;;;;;5058522;28;20503;-70
2022/11/12 08:16:34;;;;;;;32.90;16.48;;;6.50;99.90;;;;;;5058127;28;20059;-71
2022/11/12 08:19:00;;;;;;;31.52;16.25;;;6.50;99.90;;;;;;5041260;28;20059;-70
2022/11/12 08:21:26;;;;;;;29.13;14.60;;;6.60;99.90;;;;;;5058533;28;20078;-70
2022/11/12 08:23:52;;;;;;;34.75;16.63;;;6.60;99.90;;;;;;5074583;28;20044;-70
2022/11/12 08:26:19;;;;;;;30.48;15.98;;;6.60;99.90;;;;;;5055582;28;20489;-70
2022/11/12 08:28:45;;;;;;;31.05;13.68;;;6.60;99.90;;;;;;5041712;28;20488;-71
2022/11/12 08:31:14;;;;;;;36.90;16.65;;;6.60;99.90;;;;;;5074883;28;20434;-71
2022/11/12 08:33:40;;;;;;;42.42;17.52;;;6.60;99.90;;;;;;5074793;28;20496;-71
2022/11/12 08:36:09;;;;;;;40.30;17.38;;;6.60;99.90;;;;;;5074119;28;20458;-71
2022/11/12 08:38:35;;;;;;;105.22;21.30;;;6.70;99.90;;;;;;5057866;28;20063;-70
2022/11/12 08:41:06;;;;;;;49.13;16.05;;;6.70;99.90;;;;;;5057293;28;20526;-70
2022/11/12 08:43:32;;;;;;;;;;;6.70;99.90;;;;;;5075163;28;20048;-71
2022/11/12 08:45:59;;;;;;;89.68;20.08;;;6.70;99.90;;;;;;5074227;28;19927;-71
2022/11/12 08:48:26;;;;;;;80.57;19.98;;;6.70;99.90;;;;;;5060400;28;20115;-71
2022/11/12 08:50:52;;;;;;;117.78;23.65;;;7.10;99.90;;;;;;5037903;28;20504;-71
2022/11/12 08:53:20;;;;;;;116.78;23.10;;;7.60;99.90;;;;;;5037897;28;20052;-71
2022/11/12 08:55:45;;;;;;;116.40;24.17;;;6.90;99.90;;;;;;5053566;28;20056;-71
2022/11/12 08:58:11;;;;;;;152.38;25.55;;;6.90;99.90;;;;;;5054180;28;20047;-70
2022/11/12 09:00:40;;;;;;;134.38;24.67;;;7.00;99.90;;;;;;5037704;28;20514;-71
2022/11/12 09:03:07;;;;;;;182.32;27.00;;;7.10;99.90;;;;;;5037933;28;20060;-71
2022/11/12 09:05:36;;;;;;;147.68;25.05;;;7.10;99.90;;;;;;5037687;28;20048;-70
2022/11/12 09:08:08;;;;;;;289.67;32.08;;;7.10;99.90;;;;;;5037563;28;20064;-70
2022/11/12 09:10:34;;;;;;;157.98;27.45;;;7.20;99.90;;;;;;5053823;28;20048;-71
2022/11/12 09:13:01;;;;;;;179.40;27.65;;;7.30;99.90;;;;;;5054031;28;20072;-70
2022/11/12 09:15:28;;;;;;;173.27;26.83;;;7.40;99.90;;;;;;5020730;28;20401;-71
2022/11/12 09:17:59;;;;;;;309.95;34.33;;;7.40;99.90;;;;;;5037252;28;20048;-69
2022/11/12 09:20:27;;;;;;;226.87;31.20;;;7.60;99.90;;;;;;5037699;28;20447;-70
2022/11/12 09:22:53;;;;;;;371.75;38.60;;;7.50;99.90;;;;;;5036537;28;20163;-70
2022/11/12 09:25:19;;;;;;;249.68;33.15;;;7.70;99.90;;;;;;5019717;28;20064;-69
2022/11/12 09:27:45;;;;;;;328.40;37.67;;;7.70;99.90;;;;;;5020800;28;20045;-70
2022/11/12 09:30:11;;;;;;;228.43;32.40;;;7.80;99.90;;;;;;5053873;28;20044;-70
2022/11/12 09:32:36;;;;;;;322.63;37.85;;;8.00;99.90;;;;;;5020662;28;20056;-69
2022/11/12 09:35:02;;;;;;;242.40;33.97;;;8.00;99.90;;;;;;5036486;28;20045;-69
2022/11/12 09:37:28;;;;;;;337.27;39.58;;;8.20;99.90;;;;;;5036865;28;20055;-70
2022/11/12 09:39:54;;;;;;;214.13;32.75;;;8.30;99.90;;;;;;5036422;28;20152;-69
2022/11/12 09:42:21;;;;;;;211.30;33.92;;;8.60;99.90;;;;;;5036830;28;20076;-69
2022/11/12 09:44:57;;;;;;;329.65;38.70;;;8.50;99.90;;;;;;5036847;28;20443;-69
2022/11/12 09:47:36;;;;;;;184.70;31.27;;;8.70;99.90;;;;;;5058469;28;20040;-70
2022/11/12 09:50:26;;;;;;;289.05;36.50;;;8.70;99.90;;;;;;5056311;28;20044;-70
2022/11/12 09:53:01;;;;;;;220.63;33.00;;;8.80;99.90;;;;;;5056465;28;20051;-69
2022/11/12 09:55:39;;;;;;;165.60;28.75;;;8.80;99.90;;;;;;5072174;28;20036;-70
2022/11/12 09:58:12;;;;;;;169.68;29.48;;;8.90;99.90;;;;;;5072600;28;20052;-69
2022/11/12 10:00:42;;;;;;;276.98;30.35;;;9.00;99.90;;;;;;5073352;28;20459;-69
2022/11/12 10:03:21;;;;;;;328.13;29.65;;;9.10;99.90;;;;;;5056558;28;20043;-70
2022/11/12 10:05:55;;;;;;;139.73;22.15;;;9.20;99.90;;;;;;5056225;28;20052;-70
2022/11/12 10:08:29;;;;;;;140.05;23.05;;;9.20;99.90;;;;;;5072762;28;20040;-70
2022/11/12 10:11:22;;;;;;;111.00;22.40;;;9.30;99.90;;;;;;5071873;28;20048;-69
2022/11/12 10:14:20;;;;;;;87.25;21.95;;;9.40;99.90;;;;;;5073092;28;20187;-69
2022/11/12 10:17:13;;;;;;;127.78;24.75;;;9.40;99.90;;;;;;5073228;28;20056;-70
2022/11/12 10:20:06;;;;;;;153.02;24.35;;;9.40;99.90;;;;;;5056503;28;20184;-70
2022/11/12 10:23:00;;;;;;;129.07;22.63;;;9.40;99.90;;;;;;5072639;28;20048;-70
2022/11/12 10:25:26;;;;;;;143.02;25.15;;;9.40;99.90;;;;;;5066961;28;20405;-70
2022/11/12 10:27:54;;;;;;;111.57;24.15;;;9.40;99.90;;;;;;5052546;28;20497;-69
2022/11/12 10:30:25;;;;;;;103.55;24.35;;;9.40;99.90;;;;;;5052911;28;20063;-70
2022/11/12 10:32:52;;;;;;;140.65;27.42;;;9.40;99.90;;;;;;5035938;28;20084;-69
2022/11/12 10:35:22;;;;;;;165.48;26.20;;;9.40;99.90;;;;;;5052240;28;20045;-69
2022/11/12 10:38:00;;;;;;;138.63;26.48;;;9.50;99.90;;;;;;5036193;28;20050;-69
2022/11/12 10:40:39;;;;;;;160.63;29.35;;;9.40;99.90;;;;;;5052005;28;20433;-70
2022/11/12 10:43:05;;;;;;;121.57;26.48;;;9.40;99.90;;;;;;5035761;28;20060;-70
2022/11/12 10:45:31;;;;;;;146.50;28.95;;;9.40;99.90;;;;;;5052776;28;20572;-70
2022/11/12 10:47:58;;;;;;;149.95;30.08;;;9.40;99.90;;;;;;5025377;28;20051;-70
2022/11/12 10:50:41;;;;;;;124.18;29.15;;;9.40;99.90;;;;;;5021290;28;20049;-70
2022/11/12 10:53:10;;;;;;;90.13;29.08;;;9.50;99.90;;;;;;5020163;28;20137;-70
2022/11/12 10:55:54;;;;;;;94.95;29.48;;;9.50;99.90;;;;;;5019476;28;20090;-72
2022/11/12 10:58:20;;;;;;;132.63;30.73;;;9.50;99.90;;;;;;5055989;28;20565;-70
2022/11/12 11:01:03;;;;;;;103.28;29.27;;;9.50;99.90;;;;;;5056451;28;20051;-69
2022/11/12 11:03:48;;;;;;;73.03;30.77;;;9.50;99.90;;;;;;5039710;28;20219;-70
2022/11/12 11:06:13;;;;;;;73.07;31.42;;;9.50;99.90;;;;;;5039376;28;20055;-70
2022/11/12 11:08:43;;;;;;;59.05;28.63;;;9.60;99.90;;;;;;5056570;28;20049;-69
2022/11/12 11:11:15;;;;;;;61.88;29.42;;;9.60;99.90;;;;;;5054913;28;20040;-70
2022/11/12 11:13:41;;;;;;;59.95;28.17;;;9.60;99.90;;;;;;5056556;28;20044;-70
2022/11/12 11:16:11;;;;;;;56.72;27.27;;;9.60;99.90;;;;;;5039283;28;20486;-70
2022/11/12 11:18:40;;;;;;;54.15;27.80;;;9.60;99.90;;;;;;5039884;28;20051;-70
2022/11/12 11:21:31;;;;;;;53.83;28.45;;;9.60;99.90;;;;;;5039226;28;20498;-70
2022/11/12 11:24:18;;;;;;;53.00;29.38;;;9.80;99.90;;;;;;5038888;28;20059;-71
2022/11/12 11:26:47;;;;;;;51.83;27.58;;;9.90;99.90;;;;;;5055159;28;20171;-70
2022/11/12 11:29:50;;;;;;;58.60;29.90;;;10.00;99.90;;;;;;5055960;28;20044;-70
2022/11/12 11:32:28;;;;;;;54.35;28.45;;;10.10;99.90;;;;;;5055610;28;20044;-70
2022/11/12 11:35:18;;;;;;;55.38;29.65;;;10.20;99.90;;;;;;5039070;28;20118;-70
2022/11/12 11:37:58;;;;;;;48.80;28.08;;;10.40;99.90;;;;;;5056132;28;20086;-69
2022/11/12 11:40:32;;;;;;;49.22;28.55;;;10.50;99.90;;;;;;5055415;28;20084;-70
2022/11/12 11:43:10;;;;;;;45.08;28.08;;;10.70;99.90;;;;;;5039214;28;20052;-70
2022/11/12 11:46:01;;;;;;;44.13;26.77;;;10.90;99.90;;;;;;5055958;28;20060;-70
2022/11/12 11:48:48;;;;;;;46.10;29.23;;;11.00;99.90;;;;;;5024946;28;20521;-70
2022/11/12 11:51:36;;;;;;;47.80;27.17;;;11.10;99.90;;;;;;5019302;28;20103;-70
2022/11/12 11:54:26;;;;;;;48.72;27.60;;;11.20;99.90;;;;;;5035641;28;20504;-70
2022/11/12 11:56:59;;;;;;;39.08;27.08;;;11.40;99.90;;;;;;5035287;28;20060;-70
2022/11/12 11:59:46;;;;;;;43.08;26.02;;;11.60;99.90;;;;;;5034511;28;20504;-70
2022/11/12 12:02:19;;;;;;;42.60;25.27;;;11.60;99.90;;;;;;5035387;28;20143;-70
2022/11/12 12:04:50;;;;;;;41.92;25.67;;;11.60;99.90;;;;;;5035452;28;20374;-70
2022/11/12 12:07:22;;;;;;;37.80;25.23;;;11.60;99.90;;;;;;5018859;28;20099;-70
2022/11/12 12:10:03;;;;;;;41.35;25.30;;;11.80;99.90;;;;;;5018298;28;20049;-70
2022/11/12 12:12:44;;;;;;;38.67;23.02;;;11.80;99.90;;;;;;5035497;28;20080;-70
2022/11/12 12:15:29;;;;;;;33.20;22.25;;;12.00;99.90;;;;;;5034676;28;20049;-70
2022/11/12 12:18:27;;;;;;;37.30;23.42;;;12.00;99.90;;;;;;5017283;28;20084;-70
2022/11/12 12:21:01;;;;;;;31.80;21.50;;;12.30;99.90;;;;;;5033814;28;20102;-72
2022/11/12 12:23:39;;;;;;;31.40;20.27;;;12.50;99.90;;;;;;5016502;28;20723;-70
2022/11/12 12:26:12;;;;;;;32.60;21.20;;;12.70;99.90;;;;;;5035486;28;20108;-72
2022/11/12 12:28:56;;;;;;;31.73;19.50;;;13.00;99.90;;;;;;5035063;28;20052;-69
2022/11/12 12:31:30;;;;;;;26.67;18.58;;;13.40;99.90;;;;;;5018303;28;20049;-70
2022/11/12 12:34:01;;;;;;;28.27;18.25;;;14.00;99.90;;;;;;5018058;28;20088;-70
2022/11/12 12:36:36;;;;;;;25.50;17.90;;;14.50;99.90;;;;;;5018173;28;20045;-71
2022/11/12 12:39:07;;;;;;;18.50;15.18;;;15.40;99.90;;;;;;5034909;28;20067;-70
2022/11/12 12:41:36;;;;;;;18.20;13.57;;;16.00;99.90;;;;;;5033936;28;20052;-70
2022/11/12 12:44:04;;;;;;;16.80;13.20;;;16.20;99.90;;;;;;5034721;28;20041;-70
2022/11/12 12:46:43;;;;;;;17.13;13.23;;;16.50;99.90;;;;;;5017885;28;20103;-70
2022/11/12 12:49:15;;;;;;;15.63;12.90;;;16.10;99.90;;;;;;5037552;28;20140;-70
2022/11/12 12:51:41;;;;;;;17.40;11.90;;;16.00;99.90;;;;;;5054630;28;20032;-71
2022/11/12 12:54:35;;;;;;;17.83;14.02;;;16.30;99.90;;;;;;5038002;28;20062;-70
2022/11/12 12:57:03;;;;;;;20.83;15.75;;;16.00;99.90;;;;;;5053886;28;20507;-71
2022/11/12 12:59:29;;;;;;;14.27;11.40;;;16.70;99.90;;;;;;5053504;28;20132;-70
2022/11/12 13:02:00;;;;;;;13.57;11.18;;;17.40;99.90;;;;;;5054081;28;20139;-71
2022/11/12 13:04:56;;;;;;;15.13;11.57;;;17.70;99.90;;;;;;5054246;28;20518;-71
2022/11/12 13:07:40;;;;;;;14.02;11.20;;;18.10;99.90;;;;;;5016957;28;20064;-70